Time;durP1;ratioP1;P1;durP2;ratioP2;P2;SDS_P1;SDS_P2;PMS_P1;PMS_P2;Temp;Humidity;BMP_temperature;BMP_pressure;BME280_temperature;BME280_humidity;BME280_pressure;Samples;Min_cycle;Max_cycle;Signal;HPM_P1;HPM_P2
2022/10/21 00:01:14;;;;;;;4.78;3.15;;;;;;;;;;5056226;28;20093;-78
2022/10/21 00:03:40;;;;;;;2.65;2.42;;;;;;;;;;5072205;28;20119;-75
2022/10/21 00:06:06;;;;;;;2.72;1.92;;;;;;;;;;5055635;28;20044;-77
2022/10/21 00:08:32;;;;;;;2.70;1.90;;;;;;;;;;5055365;28;20044;-77
2022/10/21 00:10:59;;;;;;;2.83;2.03;;;;;;;;;;5055354;28;20036;-77
2022/10/21 00:13:25;;;;;;;3.30;2.08;;;;;;;;;;5072301;28;20060;-77
2022/10/21 00:15:58;;;;;;;3.40;2.10;;;;;;;;;;5055276;28;20043;-78
2022/10/21 00:18:24;;;;;;;3.00;2.35;;;;;;;;;;5054958;28;20059;-79
2022/10/21 00:20:49;;;;;;;2.33;2.13;;;;;;;;;;5055931;28;20055;-77
2022/10/21 00:23:15;;;;;;;5.10;2.28;;;;;;;;;;5055681;28;20123;-76
2022/10/21 00:25:41;;;;;;;5.00;2.90;;;;;;;;;;5055094;28;20459;-77
2022/10/21 00:28:07;;;;;;;4.57;2.70;;;;;;;;;;5053949;28;20047;-76
2022/10/21 00:30:35;;;;;;;5.13;2.97;;;;;;;;;;5053694;28;20032;-77
2022/10/21 00:33:00;;;;;;;3.30;2.78;;;;;;;;;;5053563;28;20036;-75
2022/10/21 00:35:28;;;;;;;4.93;2.80;;;;;;;;;;5053730;28;20037;-76
2022/10/21 00:37:54;;;;;;;3.65;2.85;;;;;;;;;;5053375;28;20475;-75
2022/10/21 00:40:22;;;;;;;5.03;3.10;;;;;;;;;;5037196;28;20068;-75
2022/10/21 00:42:48;;;;;;;6.13;3.25;;;;;;;;;;5054525;28;20032;-76
2022/10/21 00:45:20;;;;;;;6.20;3.10;;;;;;;;;;5056605;28;20033;-80
2022/10/21 00:47:52;;;;;;;3.78;2.90;;;;;;;;;;5074451;28;20038;-79
2022/10/21 00:50:30;;;;;;;5.43;3.17;;;;;;;;;;5057018;28;20530;-79
2022/10/21 00:52:57;;;;;;;4.55;2.92;;;;;;;;;;5056011;28;20132;-79
2022/10/21 00:55:25;;;;;;;4.53;3.40;;;;;;;;;;5073004;28;20056;-78
2022/10/21 00:57:51;;;;;;;3.65;3.00;;;;;;;;;;5073501;28;20487;-80
2022/10/21 01:00:17;;;;;;;4.82;3.30;;;;;;;;;;5056699;28;20043;-78
2022/10/21 01:02:44;;;;;;;5.95;3.13;;;;;;;;;;5073235;28;20052;-78
2022/10/21 01:05:11;;;;;;;5.93;3.10;;;;;;;;;;5072672;28;20044;-80
2022/10/21 01:07:37;;;;;;;3.55;2.80;;;;;;;;;;5056100;28;20028;-80
2022/10/21 01:10:03;;;;;;;7.00;2.83;;;;;;;;;;5056242;28;20046;-79
2022/10/21 01:12:38;;;;;;;7.40;3.30;;;;;;;;;;5037732;28;20147;-79
2022/10/21 01:15:16;;;;;;;6.57;2.78;;;;;;;;;;5055481;28;20121;-79
2022/10/21 01:17:48;;;;;;;4.25;2.88;;;;;;;;;;5072531;28;20482;-80
2022/10/21 01:20:20;;;;;;;4.45;3.33;;;;;;;;;;5056905;28;20049;-80
2022/10/21 01:23:12;;;;;;;3.97;2.60;;;;;;;;;;5056264;28;20044;-79
2022/10/21 01:25:49;;;;;;;4.18;2.78;;;;;;;;;;5056542;28;20032;-79
2022/10/21 01:28:28;;;;;;;5.55;2.35;;;;;;;;;;5056286;28;20137;-78
2022/10/21 01:30:59;;;;;;;3.00;2.47;;;;;;;;;;5075853;28;20044;-77
2022/10/21 01:33:44;;;;;;;5.13;2.92;;;;;;;;;;5058644;28;20127;-78
2022/10/21 01:36:17;;;;;;;5.32;2.53;;;;;;;;;;5058590;28;20504;-78
2022/10/21 01:38:46;;;;;;;3.00;2.20;;;;;;;;;;5058572;28;20571;-77
2022/10/21 01:41:12;;;;;;;4.65;2.70;;;;;;;;;;5058178;28;20620;-77
2022/10/21 01:43:43;;;;;;;4.13;2.70;;;;;;;;;;5058150;28;20139;-78
2022/10/21 01:46:17;;;;;;;3.45;2.50;;;;;;;;;;5074842;28;20174;-77
2022/10/21 01:48:46;;;;;;;3.55;2.40;;;;;;;;;;5057890;28;20040;-76
2022/10/21 01:51:12;;;;;;;3.55;2.65;;;;;;;;;;5058035;28;20036;-76
2022/10/21 01:53:42;;;;;;;3.08;2.70;;;;;;;;;;5057768;28;20043;-77
2022/10/21 01:56:08;;;;;;;4.13;2.72;;;;;;;;;;5057727;28;20043;-75
2022/10/21 01:58:36;;;;;;;3.30;2.42;;;;;;;;;;5057743;28;20486;-74
2022/10/21 02:01:03;;;;;;;2.83;2.30;;;;;;;;;;5057352;28;20050;-77
2022/10/21 02:03:31;;;;;;;3.42;2.38;;;;;;;;;;5074144;28;20378;-75
2022/10/21 02:05:58;;;;;;;4.13;2.30;;;;;;;;;;5057219;28;20043;-75
2022/10/21 02:08:23;;;;;;;2.80;2.45;;;;;;;;;;5057465;28;20040;-74
2022/10/21 02:10:52;;;;;;;3.47;2.28;;;;;;;;;;5057286;28;20546;-75
2022/10/21 02:13:21;;;;;;;3.22;2.10;;;;;;;;;;5057118;28;20056;-76
2022/10/21 02:16:08;;;;;;;5.40;2.25;;;;;;;;;;5060056;28;20040;-75
2022/10/21 02:18:34;;;;;;;4.85;2.17;;;;;;;;;;5057225;28;20068;-74
2022/10/21 02:21:26;;;;;;;3.83;2.22;;;;;;;;;;5057196;28;20516;-74
2022/10/21 02:24:11;;;;;;;3.50;2.10;;;;;;;;;;5057591;28;20471;-74
2022/10/21 02:26:37;;;;;;;2.92;2.03;;;;;;;;;;5074436;28;20072;-74
2022/10/21 02:29:03;;;;;;;3.28;2.25;;;;;;;;;;5040432;28;20544;-75
2022/10/21 02:31:32;;;;;;;3.47;2.17;;;;;;;;;;5056731;28;20047;-75
2022/10/21 02:34:13;;;;;;;2.78;2.40;;;;;;;;;;5057524;28;20135;-75
2022/10/21 02:36:53;;;;;;;3.53;2.20;;;;;;;;;;5056870;28;20067;-74
2022/10/21 02:39:32;;;;;;;4.40;2.33;;;;;;;;;;5056875;28;20063;-74
2022/10/21 02:42:00;;;;;;;2.80;2.17;;;;;;;;;;5056366;28;20035;-75
2022/10/21 02:44:25;;;;;;;3.45;2.20;;;;;;;;;;5057135;28;20483;-74
2022/10/21 02:46:51;;;;;;;3.92;2.15;;;;;;;;;;5056683;28;20129;-74
2022/10/21 02:49:16;;;;;;;3.28;2.15;;;;;;;;;;5056808;28;20094;-75
2022/10/21 02:51:43;;;;;;;2.42;2.05;;;;;;;;;;5073640;28;20098;-75
2022/10/21 02:54:09;;;;;;;2.85;2.00;;;;;;;;;;5058828;28;20035;-76
2022/10/21 02:56:34;;;;;;;2.40;2.20;;;;;;;;;;5074547;28;20053;-77
2022/10/21 02:59:00;;;;;;;5.50;2.50;;;;;;;;;;5076429;28;20040;-77
2022/10/21 03:01:26;;;;;;;3.03;2.13;;;;;;;;;;5060107;28;20068;-78
2022/10/21 03:03:52;;;;;;;3.83;2.40;;;;;;;;;;5060350;28;20039;-77
2022/10/21 03:06:17;;;;;;;4.40;2.05;;;;;;;;;;5057722;28;20040;-76
2022/10/21 03:08:43;;;;;;;3.63;2.10;;;;;;;;;;5073479;28;20036;-75
2022/10/21 03:11:08;;;;;;;4.70;2.38;;;;;;;;;;5055926;28;20032;-76
2022/10/21 03:13:34;;;;;;;3.17;2.22;;;;;;;;;;5056104;28;20032;-76
2022/10/21 03:16:01;;;;;;;2.60;2.22;;;;;;;;;;5056079;28;20040;-77
2022/10/21 03:18:28;;;;;;;3.15;2.33;;;;;;;;;;5056544;28;20478;-77
2022/10/21 03:20:53;;;;;;;3.60;2.38;;;;;;;;;;5056121;28;20036;-77
2022/10/21 03:23:19;;;;;;;4.63;2.40;;;;;;;;;;5055839;28;20036;-76
2022/10/21 03:25:45;;;;;;;4.22;2.30;;;;;;;;;;5055698;28;20101;-75
2022/10/21 03:28:10;;;;;;;2.53;2.20;;;;;;;;;;5055977;28;20443;-77
2022/10/21 03:30:36;;;;;;;3.05;2.85;;;;;;;;;;5055922;28;20040;-79
2022/10/21 03:33:02;;;;;;;4.07;2.72;;;;;;;;;;5056332;28;20044;-79
2022/10/21 03:35:28;;;;;;;4.32;2.63;;;;;;;;;;5056731;28;20093;-79
2022/10/21 03:37:53;;;;;;;5.22;2.80;;;;;;;;;;5073482;28;20052;-81
2022/10/21 03:40:19;;;;;;;7.22;2.85;;;;;;;;;;5056109;28;20584;-77
2022/10/21 03:42:49;;;;;;;4.57;2.47;;;;;;;;;;5055464;28;20036;-75
2022/10/21 03:45:15;;;;;;;3.00;2.55;;;;;;;;;;5055414;28;20366;-76
2022/10/21 03:47:48;;;;;;;3.17;2.60;;;;;;;;;;5055435;28;20479;-79
2022/10/21 03:50:13;;;;;;;2.70;2.40;;;;;;;;;;5055810;28;20094;-79
2022/10/21 03:52:39;;;;;;;3.75;2.63;;;;;;;;;;5071765;28;20067;-76
2022/10/21 03:55:05;;;;;;;3.05;2.55;;;;;;;;;;5055428;28;20071;-77
2022/10/21 03:57:31;;;;;;;4.38;2.70;;;;;;;;;;5055209;28;20091;-78
2022/10/21 03:59:59;;;;;;;7.50;4.53;;;;;;;;;;5055386;28;20102;-74
2022/10/21 04:02:24;;;;;;;4.63;3.10;;;;;;;;;;5073050;28;20055;-77
2022/10/21 04:04:50;;;;;;;4.93;2.90;;;;;;;;;;5056696;28;20075;-77
2022/10/21 04:07:16;;;;;;;4.45;2.90;;;;;;;;;;5056150;28;20043;-74
2022/10/21 04:09:41;;;;;;;5.63;2.60;;;;;;;;;;5056147;28;20025;-75
2022/10/21 04:12:07;;;;;;;7.90;2.70;;;;;;;;;;5039320;28;20500;-75
2022/10/21 04:14:32;;;;;;;4.80;2.60;;;;;;;;;;5055000;28;20421;-76
2022/10/21 04:16:58;;;;;;;3.13;2.83;;;;;;;;;;5054890;28;20043;-76
2022/10/21 04:19:23;;;;;;;7.25;3.05;;;;;;;;;;5054562;28;20037;-75
2022/10/21 04:21:48;;;;;;;6.32;2.80;;;;;;;;;;5054685;28;20044;-76
2022/10/21 04:24:14;;;;;;;6.38;3.08;;;;;;;;;;5072205;28;20071;-76
2022/10/21 04:26:41;;;;;;;4.90;3.20;;;;;;;;;;5072216;28;20039;-76
2022/10/21 04:29:07;;;;;;;8.73;3.45;;;;;;;;;;5054822;28;20024;-77
2022/10/21 04:31:32;;;;;;;4.55;2.97;;;;;;;;;;5071707;28;20044;-72
2022/10/21 04:33:58;;;;;;;4.22;2.83;;;;;;;;;;5071675;28;20378;-77
2022/10/21 04:36:23;;;;;;;5.43;3.30;;;;;;;;;;5054891;28;20460;-75
2022/10/21 04:38:57;;;;;;;4.13;3.60;;;;;;;;;;5055570;28;20025;-72
2022/10/21 04:41:22;;;;;;;3.95;2.67;;;;;;;;;;5055654;28;20550;-74
2022/10/21 04:43:48;;;;;;;5.38;2.70;;;;;;;;;;5071007;28;20119;-77
2022/10/21 04:46:15;;;;;;;4.72;2.90;;;;;;;;;;5071951;28;20036;-72
2022/10/21 04:48:41;;;;;;;6.45;2.90;;;;;;;;;;5072228;28;20025;-74
2022/10/21 04:51:06;;;;;;;6.28;3.25;;;;;;;;;;5054352;28;20047;-68
2022/10/21 04:53:32;;;;;;;4.72;2.80;;;;;;;;;;5072180;28;20116;-67
2022/10/21 04:55:57;;;;;;;6.38;2.92;;;;;;;;;;5070670;28;20397;-72
2022/10/21 04:58:23;;;;;;;3.88;3.10;;;;;;;;;;5042521;28;20091;-71
2022/10/21 05:00:49;;;;;;;4.70;2.90;;;;;;;;;;5068983;28;20040;-71
2022/10/21 05:03:14;;;;;;;7.45;3.50;;;;;;;;;;5068448;28;20044;-71
2022/10/21 05:05:40;;;;;;;4.03;3.13;;;;;;;;;;5063911;28;20039;-73
2022/10/21 05:08:05;;;;;;;6.13;3.38;;;;;;;;;;5048298;28;20036;-71
2022/10/21 05:10:30;;;;;;;7.13;3.53;;;;;;;;;;5051543;28;20028;-71
2022/10/21 05:12:56;;;;;;;4.13;2.80;;;;;;;;;;5068849;28;20029;-76
2022/10/21 05:15:25;;;;;;;6.32;3.03;;;;;;;;;;5068788;28;20040;-70
2022/10/21 05:17:51;;;;;;;5.18;2.78;;;;;;;;;;5068426;28;20067;-71
2022/10/21 05:20:16;;;;;;;5.82;2.92;;;;;;;;;;5068823;28;20032;-71
2022/10/21 05:22:45;;;;;;;7.93;3.38;;;;;;;;;;5052491;28;20394;-72
2022/10/21 05:25:10;;;;;;;4.00;3.00;;;;;;;;;;5070465;28;20060;-70
2022/10/21 05:27:37;;;;;;;6.80;2.70;;;;;;;;;;5069401;28;20032;-71
2022/10/21 05:30:06;;;;;;;10.02;3.30;;;;;;;;;;5070565;28;20170;-70
2022/10/21 05:32:31;;;;;;;5.68;3.22;;;;;;;;;;5070368;28;20119;-75
2022/10/21 05:34:57;;;;;;;6.05;3.10;;;;;;;;;;5052934;28;20497;-71
2022/10/21 05:37:23;;;;;;;8.77;2.92;;;;;;;;;;5052086;28;20055;-72
2022/10/21 05:39:48;;;;;;;4.70;2.83;;;;;;;;;;5069161;28;20044;-75
2022/10/21 05:42:14;;;;;;;7.50;2.75;;;;;;;;;;5071509;28;20029;-74
2022/10/21 05:44:39;;;;;;;6.57;2.60;;;;;;;;;;5068594;28;20040;-71
2022/10/21 05:47:05;;;;;;;3.85;3.10;;;;;;;;;;5067892;28;20109;-72
2022/10/21 05:49:30;;;;;;;5.53;3.30;;;;;;;;;;5069166;28;20487;-72
2022/10/21 05:51:56;;;;;;;6.90;3.00;;;;;;;;;;5053094;28;20035;-74
2022/10/21 05:54:21;;;;;;;7.97;2.97;;;;;;;;;;5069260;28;20062;-74
2022/10/21 05:56:47;;;;;;;10.10;3.03;;;;;;;;;;5052652;28;20061;-75
2022/10/21 05:59:13;;;;;;;3.70;2.92;;;;;;;;;;5052944;28;20033;-73
2022/10/21 06:01:38;;;;;;;8.35;3.10;;;;;;;;;;5052848;28;20036;-73
2022/10/21 06:04:04;;;;;;;4.85;3.60;;;;;;;;;;5052808;28;20492;-72
2022/10/21 06:06:29;;;;;;;5.95;2.83;;;;;;;;;;5052288;28;20032;-74
2022/10/21 06:08:55;;;;;;;5.20;3.30;;;;;;;;;;5052360;28;20118;-74
2022/10/21 06:11:20;;;;;;;6.13;3.53;;;;;;;;;;5052019;28;20044;-74
2022/10/21 06:13:46;;;;;;;7.72;3.75;;;;;;;;;;5068537;28;20391;-73
2022/10/21 06:16:14;;;;;;;9.32;4.35;;;;;;;;;;5070661;28;20039;-73
2022/10/21 06:18:40;;;;;;;7.65;3.90;;;;;;;;;;5074127;28;20174;-74
2022/10/21 06:21:06;;;;;;;9.75;3.92;;;;;;;;;;5056686;28;20043;-74
2022/10/21 06:23:32;;;;;;;8.23;3.60;;;;;;;;;;5056322;28;20032;-74
2022/10/21 06:25:57;;;;;;;8.90;4.32;;;;;;;;;;5054111;28;20510;-74
2022/10/21 06:28:23;;;;;;;4.38;3.45;;;;;;;;;;5053693;28;20040;-72
2022/10/21 06:30:49;;;;;;;15.02;3.70;;;;;;;;;;5072192;28;20458;-73
2022/10/21 06:33:14;;;;;;;7.53;3.67;;;;;;;;;;5071933;28;20040;-74
2022/10/21 06:35:40;;;;;;;6.85;3.55;;;;;;;;;;5055328;28;20478;-73
2022/10/21 06:38:05;;;;;;;6.15;3.10;;;;;;;;;;5071817;28;20098;-74
2022/10/21 06:40:31;;;;;;;7.60;3.33;;;;;;;;;;5072563;28;20056;-76
2022/10/21 06:42:56;;;;;;;11.25;3.72;;;;;;;;;;5072814;28;20041;-73
2022/10/21 06:45:22;;;;;;;4.25;3.35;;;;;;;;;;5072362;28;20115;-74
2022/10/21 06:47:47;;;;;;;8.73;3.80;;;;;;;;;;5073493;28;20032;-73
2022/10/21 06:50:18;;;;;;;7.50;4.40;;;;;;;;;;5074110;28;20040;-74
2022/10/21 06:52:44;;;;;;;6.00;4.00;;;;;;;;;;5055710;28;20036;-73
2022/10/21 06:55:11;;;;;;;9.45;3.85;;;;;;;;;;5072577;28;20430;-73
2022/10/21 06:57:37;;;;;;;6.43;3.80;;;;;;;;;;5055629;28;20063;-72
2022/10/21 07:00:03;;;;;;;5.70;3.10;;;;;;;;;;5072839;28;20131;-74
2022/10/21 07:02:29;;;;;;;8.20;3.50;;;;;;;;;;5072342;28;20024;-73
2022/10/21 07:04:56;;;;;;;6.55;3.45;;;;;;;;;;5072469;28;20132;-73
2022/10/21 07:07:22;;;;;;;4.78;3.20;;;;;;;;;;5071871;28;20134;-72
2022/10/21 07:09:47;;;;;;;6.60;3.50;;;;;;;;;;5072896;28;20092;-74
2022/10/21 07:12:13;;;;;;;4.25;3.25;;;;;;;;;;5054517;28;20049;-73
2022/10/21 07:14:38;;;;;;;8.20;3.53;;;;;;;;;;5072307;28;20126;-72
2022/10/21 07:17:04;;;;;;;4.82;3.30;;;;;;;;;;5071694;28;20052;-71
2022/10/21 07:19:30;;;;;;;5.40;3.30;;;;;;;;;;5055833;28;20482;-73
2022/10/21 07:21:56;;;;;;;5.95;3.08;;;;;;;;;;5071638;28;20044;-72
2022/10/21 07:24:22;;;;;;;7.53;3.45;;;;;;;;;;5067553;28;20420;-73
2022/10/21 07:26:50;;;;;;;5.03;3.40;;;;;;;;;;5069896;28;20060;-73
2022/10/21 07:29:15;;;;;;;9.98;3.97;;;;;;;;;;5070111;28;20055;-74
2022/10/21 07:31:43;;;;;;;5.45;3.60;;;;;;;;;;5053626;28;20032;-73
2022/10/21 07:34:11;;;;;;;7.32;3.78;;;;;;;;;;5070247;28;20089;-73
2022/10/21 07:36:38;;;;;;;7.25;4.03;;;;;;;;;;5048538;28;20511;-74
2022/10/21 07:39:06;;;;;;;10.23;5.30;;;;;;;;;;5053836;28;20040;-74
2022/10/21 07:41:33;;;;;;;7.72;4.43;;;;;;;;;;5070440;28;20035;-73
2022/10/21 07:44:08;;;;;;;9.85;4.68;;;;;;;;;;5069035;28;20493;-74
2022/10/21 07:46:33;;;;;;;10.75;4.30;;;;;;;;;;5068441;28;20044;-74
2022/10/21 07:48:59;;;;;;;9.65;4.00;;;;;;;;;;5054845;28;20036;-75
2022/10/21 07:51:25;;;;;;;7.53;3.60;;;;;;;;;;5073472;28;20036;-74
2022/10/21 07:53:52;;;;;;;33.20;13.80;;;;;;;;;;5075021;28;20120;-76
2022/10/21 07:56:22;;;;;;;7.90;4.50;;;;;;;;;;5074170;28;20060;-80
2022/10/21 07:58:49;;;;;;;7.53;3.67;;;;;;;;;;5068509;28;20044;-79
2022/10/21 08:01:18;;;;;;;6.18;4.03;;;;;;;;;;5055477;28;20036;-80
2022/10/21 08:03:44;;;;;;;7.43;4.47;;;;;;;;;;5071763;28;20063;-82
2022/10/21 08:06:11;;;;;;;5.25;3.95;;;;;;;;;;5071046;28;20470;-79
2022/10/21 08:08:37;;;;;;;8.05;3.95;;;;;;;;;;5070770;28;20040;-77
2022/10/21 08:11:03;;;;;;;6.28;4.25;;;;;;;;;;5054314;28;20032;-77
2022/10/21 08:13:30;;;;;;;8.57;3.92;;;;;;;;;;5052838;28;20032;-77
2022/10/21 08:15:56;;;;;;;8.85;4.10;;;;;;;;;;5071094;28;20482;-76
2022/10/21 08:18:22;;;;;;;6.88;3.60;;;;;;;;;;5053987;28;20047;-77
2022/10/21 08:20:48;;;;;;;5.38;3.67;;;;;;;;;;5070867;28;20059;-77
2022/10/21 08:23:15;;;;;;;6.70;4.00;;;;;;;;;;5052589;28;20474;-77
2022/10/21 08:25:48;;;;;;;6.80;4.03;;;;;;;;;;5049508;28;20044;-77
2022/10/21 08:28:14;;;;;;;8.35;4.15;;;;;;;;;;5054242;28;20466;-77
2022/10/21 08:30:40;;;;;;;5.32;4.10;;;;;;;;;;5070502;28;20066;-77
2022/10/21 08:33:05;;;;;;;9.55;3.80;;;;;;;;;;5052747;28;20458;-76
2022/10/21 08:35:32;;;;;;;6.00;3.80;;;;;;;;;;5053827;28;20032;-77
2022/10/21 08:37:58;;;;;;;8.73;3.63;;;;;;;;;;5036628;28;20044;-77
2022/10/21 08:40:24;;;;;;;6.43;4.03;;;;;;;;;;5070192;28;20115;-75
2022/10/21 08:42:50;;;;;;;4.15;3.53;;;;;;;;;;5069774;28;20157;-74
2022/10/21 08:45:15;;;;;;;6.07;3.85;;;;;;;;;;5052896;28;20046;-75
2022/10/21 08:47:46;;;;;;;8.35;4.82;;;;;;;;;;5052797;28;20045;-75
2022/10/21 08:50:13;;;;;;;6.18;3.88;;;;;;;;;;5053182;28;20047;-75
2022/10/21 08:52:39;;;;;;;7.68;4.20;;;;;;;;;;5070313;28;20040;-75
2022/10/21 08:55:22;;;;;;;4.78;3.65;;;;;;;;;;5052058;28;20093;-74
2022/10/21 08:57:49;;;;;;;6.65;3.50;;;;;;;;;;5069742;28;20143;-75
2022/10/21 09:00:22;;;;;;;6.45;3.50;;;;;;;;;;5052870;28;20049;-74
2022/10/21 09:02:47;;;;;;;8.32;4.40;;;;;;;;;;5069042;28;20520;-76
2022/10/21 09:05:32;;;;;;;8.20;4.30;;;;;;;;;;5051169;28;20040;-76
2022/10/21 09:08:16;;;;;;;6.13;3.90;;;;;;;;;;5068923;28;20028;-75
2022/10/21 09:10:45;;;;;;;9.90;4.15;;;;;;;;;;5069414;28;20032;-76
2022/10/21 09:13:24;;;;;;;11.48;4.47;;;;;;;;;;5051554;28;20513;-75
2022/10/21 09:15:58;;;;;;;5.65;4.00;;;;;;;;;;5051300;28;20482;-76
2022/10/21 09:30:17;;;;;;;8.95;4.13;;;;;;;;;;5342817;22;20088;-73
2022/10/21 09:32:50;;;;;;;6.13;4.30;;;;;;;;;;4995968;28;20654;-72
2022/10/21 09:35:15;;;;;;;6.53;4.22;;;;;;;;;;4994883;28;20182;-72
2022/10/21 09:37:41;;;;;;;7.97;4.30;;;;;;;;;;4996220;28;20136;-72
2022/10/21 09:40:23;;;;;;;10.43;4.60;;;;;;;;;;5011982;28;20132;-72
2022/10/21 09:42:50;;;;;;;9.63;4.20;;;;;;;;;;5012485;28;20095;-72
2022/10/21 09:45:25;;;;;;;5.55;4.40;;;;;;;;;;5028488;28;20087;-72
2022/10/21 09:47:54;;;;;;;9.10;4.50;;;;;;;;;;5013893;28;20033;-72
2022/10/21 09:50:22;;;;;;;12.93;4.30;;;;;;;;;;4998916;28;20053;-71
2022/10/21 09:52:54;;;;;;;9.40;4.10;;;;;;;;;;5000489;28;20033;-72
2022/10/21 09:55:20;;;;;;;8.35;3.88;;;;;;;;;;5033679;28;20040;-71
2022/10/21 09:58:00;;;;;;;8.70;4.10;;;;;;;;;;5000739;28;20483;-72
2022/10/21 10:00:46;;;;;;;5.88;3.70;;;;;;;;;;5034202;28;20131;-70
2022/10/21 10:03:36;;;;;;;7.78;3.88;;;;;;;;;;5033192;28;20471;-68
2022/10/21 10:06:03;;;;;;;9.27;3.65;;;;;;;;;;5000443;28;20034;-68
2022/10/21 10:08:33;;;;;;;6.90;3.63;;;;;;;;;;5000574;28;20033;-69
2022/10/21 10:11:08;;;;;;;7.22;3.83;;;;;;;;;;5032655;28;20095;-69
2022/10/21 10:13:38;;;;;;;7.53;3.75;;;;;;;;;;4999557;28;20053;-70
2022/10/21 10:16:12;;;;;;;6.75;3.50;;;;;;;;;;5000844;28;20106;-69
2022/10/21 10:18:37;;;;;;;4.63;3.28;;;;;;;;;;5001156;28;20049;-69
2022/10/21 10:21:08;;;;;;;8.27;3.78;;;;;;;;;;5033442;28;20378;-72
2022/10/21 10:23:34;;;;;;;;;;;;;;;;;;5000913;28;20135;-72
2022/10/21 10:25:59;;;;;;;5.95;3.58;;;;;;;;;;5000047;28;19913;-71
2022/10/21 10:28:25;;;;;;;5.93;4.15;;;;;;;;;;5016709;28;20056;-70
2022/10/21 10:30:54;;;;;;;6.68;4.70;;;;;;;;;;4999625;28;20506;-72
2022/10/21 10:33:26;;;;;;;8.10;4.40;;;;;;;;;;4999794;28;20043;-69
2022/10/21 10:35:53;;;;;;;7.80;4.22;;;;;;;;;;5016748;28;20033;-69
2022/10/21 10:38:20;;;;;;;8.70;4.38;;;;;;;;;;4999620;28;20550;-69
2022/10/21 10:40:47;;;;;;;11.02;4.55;;;;;;;;;;4987503;28;20758;-78
2022/10/21 10:43:15;;;;;;;9.35;4.72;;;;;;;;;;4969255;28;20038;-71
2022/10/21 10:45:50;;;;;;;6.90;4.30;;;;;;;;;;4986704;28;20427;-69
2022/10/21 10:48:25;;;;;;;6.20;3.67;;;;;;;;;;4986284;28;20589;-71
2022/10/21 10:50:51;;;;;;;5.82;3.67;;;;;;;;;;5001668;28;20041;-70
2022/10/21 10:53:23;;;;;;;6.18;3.58;;;;;;;;;;4968275;28;20034;-70
2022/10/21 10:56:07;;;;;;;9.18;3.75;;;;;;;;;;4974590;28;20587;-70
2022/10/21 10:58:35;;;;;;;5.20;3.85;;;;;;;;;;4962485;28;20056;-70
2022/10/21 11:01:04;;;;;;;12.10;4.75;;;;;;;;;;4985823;28;20029;-70
2022/10/21 11:03:34;;;;;;;8.00;4.82;;;;;;;;;;4984746;28;20053;-69
2022/10/21 11:06:06;;;;;;;4.75;3.53;;;;;;;;;;5000359;28;20479;-71
2022/10/21 11:08:35;;;;;;;5.55;3.80;;;;;;;;;;4985036;28;20109;-70
2022/10/21 11:11:22;;;;;;;6.70;3.60;;;;;;;;;;4985812;28;20052;-70
2022/10/21 11:13:48;;;;;;;7.15;3.65;;;;;;;;;;4986632;28;20033;-71
2022/10/21 11:16:23;;;;;;;7.97;4.20;;;;;;;;;;5006612;28;20034;-73
2022/10/21 11:19:07;;;;;;;7.97;4.18;;;;;;;;;;4985193;28;20037;-70
2022/10/21 11:21:41;;;;;;;10.13;4.75;;;;;;;;;;4976255;28;20042;-69
2022/10/21 11:24:16;;;;;;;9.18;4.63;;;;;;;;;;4969294;28;20092;-70
2022/10/21 11:26:42;;;;;;;9.57;4.22;;;;;;;;;;4988389;28;20060;-69
2022/10/21 11:29:26;;;;;;;9.63;4.75;;;;;;;;;;4974658;28;20619;-70
2022/10/21 11:31:52;;;;;;;8.95;4.60;;;;;;;;;;4973562;28;20659;-69
2022/10/21 11:34:30;;;;;;;8.23;4.30;;;;;;;;;;4972654;28;20034;-69
2022/10/21 11:37:25;;;;;;;7.25;5.07;;;;;;;;;;4974361;28;20477;-70
2022/10/21 11:40:09;;;;;;;9.70;4.60;;;;;;;;;;4907574;28;20045;-71
2022/10/21 11:42:42;;;;;;;9.65;4.53;;;;;;;;;;4990402;28;20046;-70
2022/10/21 11:45:11;;;;;;;8.52;4.90;;;;;;;;;;4992017;28;20376;-71
2022/10/21 11:47:55;;;;;;;17.52;4.82;;;;;;;;;;4976120;28;20192;-69
2022/10/21 11:50:21;;;;;;;9.57;4.18;;;;;;;;;;4992109;28;20053;-69
2022/10/21 11:53:10;;;;;;;7.25;3.20;;;;;;;;;;4975464;28;20034;-69
2022/10/21 11:55:39;;;;;;;5.47;3.75;;;;;;;;;;4975958;28;20031;-70
2022/10/21 11:58:20;;;;;;;9.77;3.70;;;;;;;;;;4975811;28;20042;-70
2022/10/21 12:01:22;;;;;;;5.82;3.78;;;;;;;;;;4975654;28;20475;-69
2022/10/21 12:03:57;;;;;;;6.90;4.63;;;;;;;;;;4904679;29;20079;-70
2022/10/21 12:06:41;;;;;;;11.25;4.38;;;;;;;;;;4954296;28;20500;-70
2022/10/21 12:09:14;;;;;;;6.22;4.65;;;;;;;;;;4975562;28;20030;-70
2022/10/21 12:12:03;;;;;;;7.70;4.13;;;;;;;;;;4974803;28;20080;-70
2022/10/21 12:14:31;;;;;;;11.18;4.55;;;;;;;;;;4950520;28;20049;-68
2022/10/21 12:16:58;;;;;;;8.70;5.05;;;;;;;;;;4992046;28;20049;-70
2022/10/21 12:19:27;;;;;;;8.93;5.20;;;;;;;;;;4975890;28;20110;-70
2022/10/21 12:21:55;;;;;;;10.55;4.97;;;;;;;;;;4976380;28;20061;-70
2022/10/21 12:24:24;;;;;;;10.65;5.20;;;;;;;;;;4975409;28;20443;-70
2022/10/21 12:26:50;;;;;;;7.22;4.10;;;;;;;;;;4991881;28;20034;-70
2022/10/21 12:29:23;;;;;;;11.20;4.55;;;;;;;;;;4976113;28;20065;-70
2022/10/21 12:31:59;;;;;;;8.38;4.63;;;;;;;;;;4974812;28;20417;-69
2022/10/21 12:34:25;;;;;;;8.05;4.40;;;;;;;;;;4975220;28;20077;-70
2022/10/21 12:36:53;;;;;;;8.98;3.95;;;;;;;;;;4975447;28;20046;-69
2022/10/21 12:39:34;;;;;;;6.05;3.95;;;;;;;;;;4991528;28;20376;-70
2022/10/21 12:42:13;;;;;;;5.88;3.50;;;;;;;;;;4975591;28;20038;-69
2022/10/21 12:44:43;;;;;;;8.30;3.90;;;;;;;;;;4975249;28;20042;-70
2022/10/21 12:47:23;;;;;;;14.70;4.53;;;;;;;;;;4975419;28;20464;-70
2022/10/21 12:50:22;;;;;;;8.77;3.40;;;;;;;;;;4974959;28;20531;-70
2022/10/21 12:53:03;;;;;;;8.38;3.47;;;;;;;;;;4926683;28;20081;-69
2022/10/21 12:55:38;;;;;;;9.68;3.80;;;;;;;;;;4975350;28;20045;-68
2022/10/21 12:58:04;;;;;;;6.07;3.40;;;;;;;;;;4991369;28;20141;-69
2022/10/21 13:00:30;;;;;;;7.65;3.65;;;;;;;;;;5003882;28;20040;-68
2022/10/21 13:02:56;;;;;;;9.48;3.97;;;;;;;;;;4978674;28;20387;-70
2022/10/21 13:05:36;;;;;;;6.20;4.05;;;;;;;;;;4978330;28;20052;-70
2022/10/21 13:08:23;;;;;;;8.15;4.65;;;;;;;;;;4978094;28;20037;-70
2022/10/21 13:11:15;;;;;;;10.73;4.93;;;;;;;;;;4977876;28;20045;-70
2022/10/21 13:13:44;;;;;;;11.20;4.90;;;;;;;;;;4974183;28;20045;-70
2022/10/21 13:16:19;;;;;;;11.35;5.53;;;;;;;;;;4996270;28;20395;-70
2022/10/21 13:19:26;;;;;;;14.50;5.57;;;;;;;;;;4997490;28;20049;-69
2022/10/21 13:22:09;;;;;;;6.13;4.10;;;;;;;;;;4997971;28;20026;-70
2022/10/21 13:24:34;;;;;;;7.68;4.05;;;;;;;;;;5014165;28;20048;-69
2022/10/21 13:27:01;;;;;;;12.38;4.78;;;;;;;;;;4978688;28;20030;-68
2022/10/21 13:29:42;;;;;;;10.75;4.35;;;;;;;;;;4978909;28;20065;-68
2022/10/21 13:32:09;;;;;;;11.68;5.00;;;;;;;;;;4976058;28;20034;-68
2022/10/21 13:34:35;;;;;;;9.23;4.63;;;;;;;;;;4974508;28;20458;-69
2022/10/21 13:37:10;;;;;;;11.95;5.07;;;;;;;;;;4975091;28;20042;-69
2022/10/21 13:39:37;;;;;;;12.52;5.30;;;;;;;;;;4992730;28;20096;-69
2022/10/21 13:42:05;;;;;;;13.27;5.07;;;;;;;;;;4976229;28;20030;-68
2022/10/21 13:44:36;;;;;;;9.18;4.47;;;;;;;;;;4976096;28;20129;-69
2022/10/21 13:47:20;;;;;;;13.32;5.30;;;;;;;;;;4993627;28;20125;-68
2022/10/21 13:49:50;;;;;;;9.35;4.95;;;;;;;;;;4962154;28;20034;-69
2022/10/21 13:52:16;;;;;;;5.97;4.20;;;;;;;;;;4977495;28;20427;-69
2022/10/21 13:54:41;;;;;;;13.48;5.10;;;;;;;;;;4977876;28;20034;-69
2022/10/21 13:57:07;;;;;;;13.68;5.32;;;;;;;;;;4977802;28;20113;-69
2022/10/21 13:59:33;;;;;;;12.02;4.40;;;;;;;;;;4977881;28;20399;-68
2022/10/21 14:02:08;;;;;;;8.02;4.30;;;;;;;;;;4979048;28;20055;-70
2022/10/21 14:04:42;;;;;;;14.68;4.70;;;;;;;;;;4997138;28;20125;-69
2022/10/21 14:07:14;;;;;;;8.77;4.40;;;;;;;;;;4993991;28;20116;-69
2022/10/21 14:09:45;;;;;;;13.13;3.92;;;;;;;;;;4994203;28;20038;-69
2022/10/21 14:12:38;;;;;;;6.85;4.40;;;;;;;;;;4976917;28;20039;-69
2022/10/21 14:15:05;;;;;;;8.30;4.93;;;;;;;;;;4958682;28;20081;-69
2022/10/21 14:17:31;;;;;;;8.10;4.68;;;;;;;;;;4993653;28;20481;-69
2022/10/21 14:20:09;;;;;;;12.45;5.38;;;;;;;;;;4994174;28;20038;-70
2022/10/21 14:22:35;;;;;;;7.53;4.80;;;;;;;;;;4994034;28;20074;-70
2022/10/21 14:25:02;;;;;;;7.40;4.43;;;;;;;;;;4994093;28;20046;-70
2022/10/21 14:27:31;;;;;;;10.07;5.10;;;;;;;;;;4978194;28;20066;-69
2022/10/21 14:29:57;;;;;;;7.72;4.53;;;;;;;;;;4977750;28;20193;-70
2022/10/21 14:32:24;;;;;;;8.25;4.70;;;;;;;;;;4993329;28;20090;-70
2022/10/21 14:34:55;;;;;;;11.38;4.82;;;;;;;;;;4993344;28;20086;-69
2022/10/21 14:37:24;;;;;;;11.18;4.55;;;;;;;;;;4976050;28;20050;-69
2022/10/21 14:39:49;;;;;;;10.95;4.68;;;;;;;;;;4977337;28;20113;-70
2022/10/21 14:42:20;;;;;;;11.85;4.75;;;;;;;;;;4977227;28;20046;-70
2022/10/21 14:44:49;;;;;;;9.82;4.53;;;;;;;;;;4977275;28;20038;-70
2022/10/21 14:47:20;;;;;;;9.63;5.20;;;;;;;;;;4993016;28;20436;-70
2022/10/21 14:49:50;;;;;;;8.68;4.75;;;;;;;;;;4993313;28;20041;-70
2022/10/21 14:52:33;;;;;;;14.68;5.20;;;;;;;;;;4976699;28;20381;-70
2022/10/21 14:55:01;;;;;;;11.50;5.60;;;;;;;;;;4993072;28;20065;-68
2022/10/21 14:57:35;;;;;;;8.80;4.55;;;;;;;;;;4977315;28;20093;-69
2022/10/21 15:00:01;;;;;;;10.18;4.75;;;;;;;;;;4977247;28;20104;-69
2022/10/21 15:02:33;;;;;;;9.52;4.57;;;;;;;;;;4993411;28;20042;-69
2022/10/21 15:04:59;;;;;;;8.65;4.65;;;;;;;;;;4993430;28;20049;-70
2022/10/21 15:07:28;;;;;;;11.40;5.05;;;;;;;;;;4993164;28;20357;-69